Terminal Aerodrome Forecast
Issued by NWS

Home | Current Version | Previous Version | Text Only | Print | Product List | Glossary On
Versions: 1 2 3 4 5 6 7 8 9 10 11 12 13 14 15 16 17 18
000
FTUS41 KBGM 291735
TAFITH
TAF
KITH 291735Z 2918/3018 22008KT P6SM SCT045 BKN200
     FM300100 16005KT P6SM SCT100 BKN200
     FM301200 21007KT P6SM OVC060
      TEMPO 3013/3016 -SHRA OVC040
     FM301600 30008KT P6SM BKN050=

USA.gov is the U.S. government's official web portal to all federal, state and local government web resources and services.